createdAt,value
2022-12-04T00:03:23.503Z,28.50
2022-12-04T00:06:47.706Z,28.47
2022-12-04T00:10:09.867Z,28.13
2022-12-04T00:13:33.907Z,27.87
2022-12-04T00:16:55.596Z,30.97
2022-12-04T00:20:17.249Z,29.13
2022-12-04T00:23:39.632Z,29.17
2022-12-04T00:27:01.398Z,27.27
2022-12-04T00:30:22.923Z,31.10
2022-12-04T00:33:44.585Z,30.10
2022-12-04T00:37:06.162Z,34.13
2022-12-04T00:40:27.742Z,27.60
2022-12-04T00:43:52.691Z,30.83
2022-12-04T00:47:17.202Z,31.33
2022-12-04T00:50:38.931Z,31.83
2022-12-04T00:54:00.522Z,34.40
2022-12-04T00:57:24.283Z,32.57
2022-12-04T01:00:48.852Z,50.37
2022-12-04T01:04:10.425Z,34.47
2022-12-04T01:07:32.210Z,30.77
2022-12-04T01:10:53.804Z,32.37
2022-12-04T01:14:15.370Z,30.37
2022-12-04T01:17:37.222Z,32.67
2022-12-04T01:20:58.777Z,30.87
2022-12-04T01:24:22.465Z,30.90
2022-12-04T01:27:44.009Z,30.63
2022-12-04T01:31:11.000Z,31.73
2022-12-04T01:34:33.530Z,34.10
2022-12-04T01:37:59.857Z,26.70
2022-12-04T01:41:27.026Z,27.83
2022-12-04T01:45:42.928Z,33.47
2022-12-04T01:49:09.323Z,32.07
2022-12-04T01:52:31.134Z,31.30
2022-12-04T01:55:53.153Z,32.30
2022-12-04T01:59:21.883Z,37.43
2022-12-04T02:02:50.249Z,33.50
2022-12-04T02:06:11.870Z,31.88
2022-12-04T02:09:34.820Z,31.37
2022-12-04T02:13:05.504Z,34.87
2022-12-04T02:16:36.890Z,32.07
2022-12-04T02:20:28.410Z,34.90
2022-12-04T02:24:20.303Z,34.67
2022-12-04T02:27:41.820Z,36.47
2022-12-04T02:31:12.385Z,36.53
2022-12-04T02:35:04.184Z,32.10
2022-12-04T02:38:45.173Z,34.23
2022-12-04T02:42:33.381Z,32.67
2022-12-04T02:46:19.181Z,37.87
2022-12-04T02:49:46.906Z,32.87
2022-12-04T02:53:29.111Z,38.23
2022-12-04T02:56:54.009Z,32.13
2022-12-04T03:00:16.524Z,37.60
2022-12-04T03:03:38.320Z,39.73
2022-12-04T03:07:07.198Z,35.43
2022-12-04T03:14:00.135Z,37.17
2022-12-04T03:17:35.059Z,39.60
2022-12-04T03:21:02.166Z,39.40
2022-12-04T03:24:27.040Z,34.23
2022-12-04T03:28:17.175Z,39.10
2022-12-04T03:32:07.299Z,33.87
2022-12-04T03:36:13.869Z,32.37
2022-12-04T03:39:48.792Z,33.43
2022-12-04T03:43:19.627Z,35.63
2022-12-04T03:46:50.222Z,32.57
2022-12-04T03:50:32.278Z,33.73
2022-12-04T03:53:58.157Z,34.07
2022-12-04T03:57:27.757Z,34.40
2022-12-04T04:00:55.473Z,35.50
2022-12-04T04:04:27.073Z,34.67
2022-12-04T04:07:55.994Z,37.73
2022-12-04T04:11:42.692Z,42.90
2022-12-04T04:15:28.460Z,41.90
2022-12-04T04:19:11.485Z,42.17
2022-12-04T04:22:56.025Z,46.83
2022-12-04T04:26:22.042Z,44.30
2022-12-04T04:29:51.870Z,42.13
2022-12-04T04:33:16.618Z,39.13
2022-12-04T04:36:41.054Z,39.17
2022-12-04T04:40:32.382Z,43.17
2022-12-04T04:44:04.812Z,39.03
2022-12-04T04:47:49.325Z,37.30
2022-12-04T04:51:14.326Z,38.80
2022-12-04T04:54:38.910Z,36.17
2022-12-04T04:58:14.834Z,36.53
2022-12-04T05:01:40.406Z,37.13
2022-12-04T05:05:02.095Z,35.70
2022-12-04T05:08:24.197Z,36.20
2022-12-04T05:11:48.254Z,36.43
2022-12-04T05:15:10.764Z,36.73
2022-12-04T05:18:33.726Z,37.57
2022-12-04T05:21:57.264Z,37.60
2022-12-04T05:25:18.768Z,36.33
2022-12-04T05:28:42.354Z,35.03
2022-12-04T05:32:04.134Z,35.57
2022-12-04T05:35:25.707Z,50.03
2022-12-04T05:38:49.484Z,46.33
2022-12-04T05:42:11.347Z,62.57
2022-12-04T05:45:35.365Z,39.03
2022-12-04T05:48:57.641Z,45.40
2022-12-04T05:52:21.640Z,45.90
2022-12-04T05:55:43.203Z,49.30
2022-12-04T05:59:07.025Z,47.83
2022-12-04T06:02:31.436Z,47.70
2022-12-04T06:05:55.377Z,47.40
2022-12-04T06:09:19.274Z,45.60
2022-12-04T06:12:43.010Z,43.90
2022-12-04T06:16:04.941Z,42.93
2022-12-04T06:19:26.506Z,46.10
2022-12-04T06:22:50.286Z,45.23
2022-12-04T06:26:11.818Z,47.20
2022-12-04T06:29:33.418Z,58.93
2022-12-04T06:32:57.491Z,41.20
2022-12-04T06:36:22.340Z,44.43
2022-12-04T06:39:43.905Z,45.47
2022-12-04T06:43:06.547Z,50.87
2022-12-04T06:46:33.482Z,44.50
2022-12-04T06:49:57.491Z,43.20
2022-12-04T06:53:21.651Z,42.67
2022-12-04T06:56:45.930Z,43.80
2022-12-04T07:00:08.203Z,43.33
2022-12-04T07:03:30.176Z,42.20
2022-12-04T07:06:51.678Z,36.80
2022-12-04T07:10:16.246Z,39.80
2022-12-04T07:13:38.069Z,46.23
2022-12-04T07:17:02.011Z,44.07
2022-12-04T07:20:24.175Z,45.27
2022-12-04T07:23:49.959Z,46.40
2022-12-04T07:27:11.719Z,42.73
2022-12-04T07:30:37.038Z,43.33
2022-12-04T07:33:59.140Z,44.67
2022-12-04T07:37:20.676Z,45.40
2022-12-04T07:40:44.868Z,43.50
2022-12-04T07:44:06.423Z,42.10
2022-12-04T07:47:27.947Z,43.80
2022-12-04T07:50:49.513Z,42.53
2022-12-04T07:54:11.078Z,43.27
2022-12-04T07:57:33.381Z,43.10
2022-12-04T08:00:54.954Z,40.07
2022-12-04T08:04:16.903Z,36.57
2022-12-04T08:07:45.670Z,39.77
2022-12-04T08:14:29.514Z,49.00
2022-12-04T08:17:51.078Z,33.50
2022-12-04T08:21:15.879Z,36.40
2022-12-04T08:24:37.529Z,35.87
2022-12-04T08:27:59.146Z,33.90
2022-12-04T08:31:26.149Z,35.20
2022-12-04T08:34:55.732Z,34.63
2022-12-04T08:38:17.729Z,36.43
2022-12-04T08:41:39.217Z,30.30
2022-12-04T08:45:03.498Z,32.33
2022-12-04T08:48:25.414Z,33.63
2022-12-04T08:51:46.989Z,31.53
2022-12-04T08:55:11.258Z,32.93
2022-12-04T08:58:36.232Z,31.23
2022-12-04T09:01:57.809Z,33.40
2022-12-04T09:05:21.725Z,32.93
2022-12-04T09:08:46.366Z,34.33
2022-12-04T09:12:07.962Z,32.67
2022-12-04T09:15:29.845Z,30.83
2022-12-04T09:18:51.558Z,30.97
2022-12-04T09:22:16.065Z,32.03
2022-12-04T09:25:37.996Z,34.83
2022-12-04T09:29:01.657Z,32.97
2022-12-04T09:32:23.281Z,34.23
2022-12-04T09:35:44.831Z,30.50
2022-12-04T09:39:10.367Z,153.73
2022-12-04T09:42:40.111Z,33.57
2022-12-04T09:46:11.330Z,33.77
2022-12-04T09:49:53.810Z,31.17
2022-12-04T09:53:22.699Z,32.67
2022-12-04T09:56:54.804Z,27.67
2022-12-04T10:00:22.658Z,31.13
2022-12-04T10:03:46.602Z,32.90
2022-12-04T10:07:18.780Z,30.73
2022-12-04T10:10:42.660Z,28.90
2022-12-04T10:14:22.269Z,26.00
2022-12-04T10:18:17.891Z,26.65
2022-12-04T10:21:47.684Z,29.02
2022-12-04T10:25:15.157Z,35.22
2022-12-04T10:28:43.603Z,36.45
2022-12-04T10:32:25.131Z,24.55
2022-12-04T10:35:53.113Z,24.95
2022-12-04T10:39:35.390Z,22.67
2022-12-04T10:43:25.167Z,21.92
2022-12-04T10:46:50.807Z,21.15
2022-12-04T10:50:20.687Z,17.48
2022-12-04T10:53:42.585Z,19.90
2022-12-04T10:57:05.835Z,19.00
2022-12-04T11:00:35.926Z,18.52
2022-12-04T11:04:08.776Z,18.85
2022-12-04T11:07:32.344Z,18.58
2022-12-04T11:11:07.462Z,19.95
2022-12-04T11:14:30.551Z,18.15
2022-12-04T11:17:52.854Z,21.08
2022-12-04T11:21:29.771Z,16.10
2022-12-04T11:24:57.909Z,16.02
2022-12-04T11:28:42.736Z,16.55
2022-12-04T11:32:17.021Z,16.63
2022-12-04T11:35:39.827Z,16.90
2022-12-04T11:39:06.903Z,18.98
2022-12-04T11:42:33.268Z,16.17
2022-12-04T11:46:06.996Z,14.02
2022-12-04T11:49:33.337Z,17.25
2022-12-04T11:53:13.501Z,16.20
2022-12-04T11:56:40.439Z,17.02
2022-12-04T12:00:05.178Z,17.45
2022-12-04T12:03:32.245Z,15.70
2022-12-04T12:07:30.557Z,17.27
2022-12-04T12:11:00.858Z,15.60
2022-12-04T12:14:28.855Z,15.10
2022-12-04T12:18:16.500Z,18.45
2022-12-04T12:22:09.783Z,17.05
2022-12-04T12:25:52.452Z,16.92
2022-12-04T12:30:05.466Z,15.15
2022-12-04T12:33:34.678Z,16.17
2022-12-04T12:37:01.171Z,16.10
2022-12-04T12:40:49.068Z,16.40
2022-12-04T12:44:34.654Z,16.05
2022-12-04T12:48:01.847Z,14.85
2022-12-04T12:51:30.478Z,17.05
2022-12-04T12:54:57.722Z,17.15
2022-12-04T12:58:29.306Z,15.10
2022-12-04T13:02:00.530Z,17.75
2022-12-04T13:05:29.552Z,15.85
2022-12-04T13:09:02.634Z,14.88
2022-12-04T13:12:27.421Z,15.63
2022-12-04T13:15:55.265Z,16.30
2022-12-04T13:19:31.330Z,15.68
2022-12-04T13:23:15.017Z,17.60
2022-12-04T13:26:49.029Z,15.55
2022-12-04T13:30:20.192Z,16.58
2022-12-04T13:33:50.855Z,16.08
2022-12-04T13:37:36.323Z,15.85
2022-12-04T13:41:02.134Z,22.48
2022-12-04T13:44:27.345Z,21.25
2022-12-04T13:47:58.625Z,19.45
2022-12-04T13:51:20.103Z,19.30
2022-12-04T13:54:41.786Z,18.83
2022-12-04T13:58:26.136Z,19.13
2022-12-04T14:01:53.896Z,18.55
2022-12-04T14:05:15.658Z,18.33
2022-12-04T14:08:39.587Z,19.58
2022-12-04T14:12:06.172Z,21.42
2022-12-04T14:15:32.609Z,25.35
2022-12-04T14:18:59.601Z,22.17
2022-12-04T14:22:31.533Z,22.95
2022-12-04T14:25:59.069Z,23.85
2022-12-04T14:29:32.747Z,21.92
2022-12-04T14:33:03.235Z,28.60
2022-12-04T14:36:28.166Z,23.27
2022-12-04T14:39:51.367Z,25.58
2022-12-04T14:43:44.997Z,23.52
2022-12-04T14:47:34.843Z,22.03
2022-12-04T14:51:14.540Z,25.30
2022-12-04T14:54:36.007Z,27.03
2022-12-04T14:58:21.422Z,23.58
2022-12-04T15:01:43.032Z,24.47
2022-12-04T15:05:09.717Z,24.17
2022-12-04T15:08:31.379Z,26.10
2022-12-04T15:12:13.981Z,26.00
2022-12-04T15:15:38.297Z,62.85
2022-12-04T15:19:00.625Z,29.50
2022-12-04T15:22:28.239Z,28.23
2022-12-04T15:25:54.073Z,28.40
2022-12-04T15:29:21.709Z,27.48
2022-12-04T15:32:43.737Z,29.05
2022-12-04T15:36:11.681Z,29.60
2022-12-04T15:39:35.559Z,31.80
2022-12-04T15:43:14.262Z,30.55
2022-12-04T15:46:39.066Z,34.53
2022-12-04T15:50:15.728Z,34.95
2022-12-04T15:53:39.919Z,30.27
2022-12-04T15:57:07.294Z,35.90
2022-12-04T16:00:31.099Z,29.00
2022-12-04T16:03:57.558Z,32.37
2022-12-04T16:07:25.592Z,29.98
2022-12-04T16:10:57.696Z,28.52
2022-12-04T16:14:21.710Z,34.27
2022-12-04T16:17:43.234Z,32.47
2022-12-04T16:21:11.478Z,32.80
2022-12-04T16:24:35.435Z,26.65
2022-12-04T16:28:00.944Z,33.07
2022-12-04T16:31:24.066Z,28.23
2022-12-04T16:34:48.721Z,24.37
2022-12-04T16:38:16.448Z,27.07
2022-12-04T16:41:38.055Z,25.80
2022-12-04T16:44:59.850Z,24.37
2022-12-04T16:48:24.027Z,24.23
2022-12-04T16:51:49.875Z,23.83
2022-12-04T16:55:26.639Z,24.57
2022-12-04T16:58:48.639Z,24.80
2022-12-04T17:02:24.553Z,24.60
2022-12-04T17:05:48.612Z,24.93
2022-12-04T17:09:13.205Z,26.10
2022-12-04T17:12:37.235Z,24.30
2022-12-04T17:16:01.688Z,25.60
2022-12-04T17:19:28.452Z,27.60
2022-12-04T17:22:50.248Z,28.00
2022-12-04T17:26:14.814Z,28.77
2022-12-04T17:29:36.574Z,31.20
2022-12-04T17:33:00.528Z,30.73
2022-12-04T17:36:25.119Z,28.73
2022-12-04T17:39:46.923Z,31.00
2022-12-04T17:43:10.939Z,29.93
2022-12-04T17:46:32.678Z,32.60
2022-12-04T17:49:56.622Z,35.50
2022-12-04T17:53:20.789Z,33.60
2022-12-04T17:56:47.473Z,31.97
2022-12-04T18:00:11.119Z,32.47
2022-12-04T18:03:35.454Z,34.23
2022-12-04T18:06:57.053Z,30.50
2022-12-04T18:10:18.611Z,31.87
2022-12-04T18:13:40.179Z,36.17
2022-12-04T18:17:02.768Z,32.00
2022-12-04T18:20:28.923Z,37.73
2022-12-04T18:23:50.875Z,35.33
2022-12-04T18:27:17.323Z,35.53
2022-12-04T18:30:39.980Z,34.30
2022-12-04T18:34:04.714Z,33.70
2022-12-04T18:37:26.282Z,29.60
2022-12-04T18:40:47.832Z,28.50
2022-12-04T18:44:15.210Z,26.73
2022-12-04T18:47:36.806Z,24.00
2022-12-04T18:50:58.436Z,25.03
2022-12-04T18:54:23.939Z,24.87
2022-12-04T18:57:45.502Z,25.60
2022-12-04T19:01:12.262Z,27.63
2022-12-04T19:04:33.885Z,27.90
2022-12-04T19:07:57.517Z,28.37
2022-12-04T19:11:19.323Z,24.07
2022-12-04T19:14:40.877Z,30.43
2022-12-04T19:18:05.871Z,25.97
2022-12-04T19:21:29.947Z,23.53
2022-12-04T19:24:51.471Z,24.20
2022-12-04T19:28:13.038Z,23.37
2022-12-04T19:31:37.627Z,28.37
2022-12-04T19:34:59.225Z,27.80
2022-12-04T19:38:20.749Z,27.33
2022-12-04T19:41:47.287Z,23.87
2022-12-04T19:45:09.223Z,25.45
2022-12-04T19:48:33.278Z,25.92
2022-12-04T19:51:57.306Z,26.30
2022-12-04T19:55:18.822Z,22.77
2022-12-04T19:58:40.764Z,23.13
2022-12-04T20:02:05.352Z,22.70
2022-12-04T20:05:26.977Z,21.73
2022-12-04T20:08:54.211Z,26.87
2022-12-04T20:12:15.756Z,24.37
2022-12-04T20:15:38.510Z,25.77
2022-12-04T20:19:04.364Z,24.27
2022-12-04T20:22:30.885Z,21.13
2022-12-04T20:25:52.480Z,21.83
2022-12-04T20:29:16.246Z,25.73
2022-12-04T20:32:37.866Z,22.00
2022-12-04T20:36:00.740Z,25.63
2022-12-04T20:39:22.468Z,23.90
2022-12-04T20:42:44.107Z,23.65
2022-12-04T20:46:22.868Z,22.58
2022-12-04T20:49:47.408Z,27.17
2022-12-04T20:53:09.084Z,27.10
2022-12-04T20:56:34.253Z,23.63
2022-12-04T20:59:56.104Z,25.42
2022-12-04T21:03:17.868Z,26.63
2022-12-04T21:06:40.924Z,26.23
2022-12-04T21:10:03.540Z,23.37
2022-12-04T21:13:43.514Z,23.27
2022-12-04T21:17:09.531Z,24.87
2022-12-04T21:20:31.381Z,21.93
2022-12-04T21:23:53.229Z,23.30
2022-12-04T21:27:20.686Z,24.47
2022-12-04T21:30:44.916Z,23.53
2022-12-04T21:34:11.596Z,25.60
2022-12-04T21:37:35.464Z,25.97
2022-12-04T21:40:57.046Z,23.50
2022-12-04T21:44:20.110Z,24.90
2022-12-04T21:47:43.841Z,22.93
2022-12-04T21:51:21.224Z,28.83
2022-12-04T21:54:56.800Z,23.73
2022-12-04T21:58:20.444Z,22.23
2022-12-04T22:01:42.232Z,19.77
2022-12-04T22:05:06.378Z,20.00
2022-12-04T22:08:32.926Z,22.50
2022-12-04T22:11:54.512Z,20.33
2022-12-04T22:15:16.251Z,18.33
2022-12-04T22:18:38.475Z,19.00
2022-12-04T22:22:00.033Z,17.43
2022-12-04T22:25:21.598Z,18.60
2022-12-04T22:28:43.633Z,14.60
2022-12-04T22:32:05.179Z,13.20
2022-12-04T22:35:26.797Z,11.93
2022-12-04T22:39:08.023Z,12.07
2022-12-04T22:42:30.390Z,14.73
2022-12-04T22:45:51.928Z,14.07
2022-12-04T22:49:13.505Z,15.67
2022-12-04T22:52:40.073Z,17.53
2022-12-04T22:56:09.795Z,17.10
2022-12-04T22:59:33.390Z,17.70
2022-12-04T23:02:54.978Z,21.60
2022-12-04T23:06:18.758Z,21.40
2022-12-04T23:09:40.309Z,26.57
2022-12-04T23:13:04.476Z,24.40
2022-12-04T23:16:26.998Z,22.90
2022-12-04T23:19:50.780Z,24.90
2022-12-04T23:23:12.354Z,25.43
2022-12-04T23:26:43.002Z,23.83
2022-12-04T23:30:05.666Z,21.07
2022-12-04T23:33:27.644Z,19.67
2022-12-04T23:36:54.023Z,22.00
2022-12-04T23:40:20.742Z,23.67
2022-12-04T23:43:45.340Z,21.77
2022-12-04T23:47:09.193Z,20.20
2022-12-04T23:50:33.132Z,22.23
2022-12-04T23:53:57.226Z,23.07
2022-12-04T23:57:21.810Z,22.10
